Time;durP1;ratioP1;P1;durP2;ratioP2;P2;SDS_P1;SDS_P2;PMS_P1;PMS_P2;Temp;Humidity;BMP_temperature;BMP_pressure;BME280_temperature;BME280_humidity;BME280_pressure;Samples;Min_cycle;Max_cycle;Signal;HPM_P1;HPM_P2
2021/05/12 00:01:21;;;;;;;0.30;0.30;;;;;;;17.53;45.53;96106.56;5087036;28;20070;-61
2021/05/12 00:03:46;;;;;;;0.30;0.30;;;;;;;17.53;45.40;96103.06;5084741;28;20056;-61
2021/05/12 00:06:12;;;;;;;0.32;0.32;;;;;;;17.52;45.29;96110.34;5088185;28;20048;-62
2021/05/12 00:08:37;;;;;;;0.40;0.40;;;;;;;17.51;45.21;96110.66;5086114;28;20519;-61
2021/05/12 00:11:03;;;;;;;0.40;0.40;;;;;;;17.51;45.32;96102.53;5070925;28;20051;-60
2021/05/12 00:13:28;;;;;;;0.50;0.50;;;;;;;17.49;45.58;96094.66;5089273;28;20047;-61
2021/05/12 00:15:53;;;;;;;0.40;0.40;;;;;;;17.49;45.44;96091.94;5054168;28;20116;-61
2021/05/12 00:18:20;;;;;;;0.85;0.43;;;;;;;17.50;45.53;96095.47;5067898;28;20503;-60
2021/05/12 00:20:46;;;;;;;0.40;0.40;;;;;;;17.48;45.53;96089.50;5086593;28;20449;-61
2021/05/12 00:23:25;;;;;;;0.50;0.50;;;;;;;17.47;45.57;96093.31;5086412;28;20086;-61
2021/05/12 00:25:50;;;;;;;0.30;0.30;;;;;;;17.46;45.44;96089.78;5087003;28;20117;-61
2021/05/12 00:28:16;;;;;;;0.60;0.50;;;;;;;17.46;45.50;96092.47;5086721;28;20040;-60
2021/05/12 00:30:41;;;;;;;1.75;0.50;;;;;;;17.44;45.49;96083.81;5089462;28;20156;-61
2021/05/12 00:33:07;;;;;;;0.85;0.32;;;;;;;17.43;45.29;96083.00;5087435;28;20112;-61
2021/05/12 00:35:32;;;;;;;0.30;0.30;;;;;;;17.42;45.57;96086.81;5084842;28;20576;-61
2021/05/12 00:37:57;;;;;;;0.30;0.30;;;;;;;17.43;45.30;96083.00;5086445;28;20465;-61
2021/05/12 00:40:23;;;;;;;1.00;0.50;;;;;;;17.41;45.30;96077.06;5085975;28;20051;-61
2021/05/12 00:42:48;;;;;;;0.30;0.30;;;;;;;17.41;45.43;96078.94;5088212;28;20043;-60
2021/05/12 00:45:19;;;;;;;0.30;0.30;;;;;;;17.40;45.31;96071.91;5059073;28;20052;-61
2021/05/12 00:47:50;;;;;;;0.50;0.35;;;;;;;17.39;45.20;96067.59;5078897;28;20056;-61
2021/05/12 00:50:20;;;;;;;0.30;0.30;;;;;;;17.38;45.17;96072.19;5086801;28;20099;-60
2021/05/12 00:52:46;;;;;;;0.32;0.30;;;;;;;17.37;45.35;96067.84;5083106;28;20048;-60
2021/05/12 00:55:11;;;;;;;0.40;0.40;;;;;;;17.37;45.34;96069.75;5084013;28;20059;-61
2021/05/12 00:57:37;;;;;;;0.30;0.30;;;;;;;17.36;45.20;96058.13;5085481;28;20052;-61
2021/05/12 01:00:10;;;;;;;0.98;0.30;;;;;;;17.35;45.43;96044.84;5068123;28;20048;-61
2021/05/12 01:02:35;;;;;;;0.20;0.20;;;;;;;17.35;45.57;96055.66;5080138;28;20518;-61
2021/05/12 01:05:01;;;;;;;0.30;0.30;;;;;;;17.34;45.51;96054.88;5086472;28;20113;-61
2021/05/12 01:07:27;;;;;;;0.30;0.30;;;;;;;17.33;45.45;96050.50;5088805;28;20047;-62
2021/05/12 01:09:52;;;;;;;0.30;0.30;;;;;;;17.34;45.15;96051.31;5066105;28;20101;-61
2021/05/12 01:12:17;;;;;;;0.35;0.35;;;;;;;17.31;45.16;96044.56;5068264;28;20079;-61
2021/05/12 01:14:43;;;;;;;0.20;0.20;;;;;;;17.33;45.46;96049.72;5083266;28;20051;-61
2021/05/12 01:17:11;;;;;;;0.30;0.30;;;;;;;17.28;45.26;96044.31;5087748;28;20048;-60
2021/05/12 01:19:36;;;;;;;0.30;0.30;;;;;;;17.31;45.58;96046.47;5083156;28;20113;-61
2021/05/12 01:22:02;;;;;;;0.30;0.30;;;;;;;17.31;45.16;96051.88;5066782;28;20071;-61
2021/05/12 01:24:27;;;;;;;0.30;0.30;;;;;;;17.30;45.54;96050.28;5067269;28;20044;-60
2021/05/12 01:26:52;;;;;;;0.20;0.20;;;;;;;17.30;45.36;96044.84;5085112;28;20419;-61
2021/05/12 01:29:18;;;;;;;0.30;0.30;;;;;;;17.29;45.48;96045.91;5085794;28;20040;-61
2021/05/12 01:31:44;;;;;;;0.30;0.30;;;;;;;17.28;45.46;96042.41;5086152;28;20143;-60
2021/05/12 01:34:14;;;;;;;0.30;0.30;;;;;;;17.26;45.47;96038.34;5086685;28;20399;-61
2021/05/12 01:36:39;;;;;;;0.20;0.20;;;;;;;17.27;45.54;96046.19;5085615;28;20048;-60
2021/05/12 01:39:05;;;;;;;0.45;0.35;;;;;;;17.27;45.30;96046.19;5084711;28;20437;-60
2021/05/12 01:41:30;;;;;;;0.22;0.22;;;;;;;17.26;45.46;96039.16;5086370;28;20066;-61
2021/05/12 01:43:56;;;;;;;0.20;0.20;;;;;;;17.25;45.50;96037.53;5084802;28;20066;-61
2021/05/12 01:46:21;;;;;;;0.30;0.30;;;;;;;17.25;45.39;96036.72;5086280;28;20048;-61
2021/05/12 01:48:47;;;;;;;0.30;0.30;;;;;;;17.24;45.32;96038.63;5087065;28;20135;-60
2021/05/12 01:51:14;;;;;;;0.30;0.30;;;;;;;17.22;45.44;96028.06;5086741;28;20036;-60
2021/05/12 01:53:41;;;;;;;0.50;0.50;;;;;;;17.23;45.45;96023.44;5086854;28;20058;-61
2021/05/12 01:56:07;;;;;;;0.20;0.20;;;;;;;17.23;45.20;96028.84;5084330;28;20044;-62
2021/05/12 01:58:32;;;;;;;0.30;0.30;;;;;;;17.22;45.18;96027.25;5086695;28;20039;-61
2021/05/12 02:00:58;;;;;;;0.50;0.50;;;;;;;17.21;45.33;96031.03;5087036;28;20055;-59
2021/05/12 02:03:23;;;;;;;0.30;0.30;;;;;;;17.20;45.32;96030.22;5087908;28;22132;-60
2021/05/12 02:05:50;;;;;;;0.20;0.20;;;;;;;17.19;45.23;96027.78;5082372;28;20466;-60
2021/05/12 02:08:22;;;;;;;0.43;0.43;;;;;;;17.17;45.23;96025.38;5053020;28;20048;-62
2021/05/12 02:10:50;;;;;;;0.50;0.40;;;;;;;17.18;45.50;96021.56;5085950;28;20121;-61
2021/05/12 02:13:16;;;;;;;0.30;0.30;;;;;;;17.17;45.36;96025.38;5082015;28;20086;-60
2021/05/12 02:15:42;;;;;;;0.20;0.20;;;;;;;17.16;45.20;96023.72;5047962;28;20044;-60
2021/05/12 02:18:07;;;;;;;0.47;0.30;;;;;;;17.17;45.57;96029.94;5085181;28;20063;-61
2021/05/12 02:20:34;;;;;;;0.30;0.30;;;;;;;17.15;45.29;96023.97;5051405;28;20522;-60
2021/05/12 02:23:00;;;;;;;0.50;0.30;;;;;;;17.15;45.74;96027.53;5051307;28;20087;-60
2021/05/12 02:25:26;;;;;;;0.40;0.20;;;;;;;17.14;45.35;96025.06;5068744;28;20082;-61
2021/05/12 02:27:52;;;;;;;1.45;0.52;;;;;;;17.14;45.36;96022.38;5050115;28;20797;-61
2021/05/12 02:30:17;;;;;;;0.50;0.50;;;;;;;17.14;45.78;96022.38;5063695;28;20040;-60
2021/05/12 02:32:43;;;;;;;0.30;0.30;;;;;;;17.13;45.36;96023.44;5052674;28;20097;-60
2021/05/12 02:35:09;;;;;;;0.52;0.30;;;;;;;17.10;45.45;96013.97;5066999;28;20241;-62
2021/05/12 02:37:34;;;;;;;0.77;0.30;;;;;;;17.10;45.92;96016.69;5064434;28;20032;-61
2021/05/12 02:40:00;;;;;;;1.60;0.30;;;;;;;17.10;45.80;96013.97;5066315;28;20510;-61
2021/05/12 02:42:25;;;;;;;0.30;0.30;;;;;;;17.10;45.62;96018.59;5085663;28;20048;-60
2021/05/12 02:44:50;;;;;;;0.32;0.28;;;;;;;17.10;45.38;96013.16;5087506;28;20375;-61
2021/05/12 02:47:16;;;;;;;0.30;0.30;;;;;;;17.10;45.40;96013.16;5064837;28;20036;-60
2021/05/12 02:49:41;;;;;;;0.80;0.70;;;;;;;17.09;45.50;96001.53;5051133;28;20047;-61
2021/05/12 02:52:07;;;;;;;0.38;0.38;;;;;;;17.08;45.71;95996.41;5066978;28;20040;-61
2021/05/12 02:54:33;;;;;;;0.50;0.50;;;;;;;17.07;45.73;95992.88;5083666;28;20052;-61
2021/05/12 02:56:58;;;;;;;1.38;0.50;;;;;;;17.07;45.82;95997.47;5086967;28;20059;-61
2021/05/12 02:59:24;;;;;;;0.50;0.50;;;;;;;17.07;45.64;95997.47;5083300;28;20105;-60
2021/05/12 03:01:49;;;;;;;0.40;0.40;;;;;;;17.06;45.42;95990.44;5083379;28;20086;-62
2021/05/12 03:04:15;;;;;;;0.47;0.47;;;;;;;17.05;45.66;95986.13;5085557;28;20090;-61
2021/05/12 03:06:40;;;;;;;0.80;0.50;;;;;;;17.05;45.34;95978.00;5085915;28;20048;-61
2021/05/12 03:09:06;;;;;;;1.23;0.60;;;;;;;17.04;45.53;95973.66;5084517;28;20044;-61
2021/05/12 03:11:32;;;;;;;0.40;0.40;;;;;;;17.04;45.60;95973.66;5089742;28;20537;-61
2021/05/12 03:13:57;;;;;;;0.77;0.50;;;;;;;17.04;45.32;95968.25;5081810;28;20453;-61
2021/05/12 03:16:23;;;;;;;0.43;0.35;;;;;;;17.03;45.40;95972.84;5083883;28;20522;-60
2021/05/12 03:18:48;;;;;;;1.50;0.50;;;;;;;16.99;45.49;95964.47;5083964;28;20077;-61
2021/05/12 03:21:13;;;;;;;0.40;0.40;;;;;;;17.04;45.82;95968.25;5065685;28;20047;-61
2021/05/12 03:23:39;;;;;;;0.50;0.50;;;;;;;17.04;45.55;95974.47;5086049;28;20036;-61
2021/05/12 03:26:04;;;;;;;1.95;0.75;;;;;;;17.04;45.24;95970.97;5063497;28;20035;-61
2021/05/12 03:28:29;;;;;;;1.17;0.63;;;;;;;17.04;45.43;95970.97;5080550;28;20052;-61
2021/05/12 03:30:55;;;;;;;1.08;0.57;;;;;;;17.04;45.48;95976.38;5085209;28;20044;-62
2021/05/12 03:33:20;;;;;;;0.75;0.75;;;;;;;17.04;45.54;95971.75;5083302;28;20047;-61
2021/05/12 03:35:46;;;;;;;0.63;0.38;;;;;;;17.02;45.17;95969.34;5085739;28;20052;-60
2021/05/12 03:38:11;;;;;;;0.35;0.30;;;;;;;17.04;45.26;95971.75;5084805;28;20040;-61
2021/05/12 03:40:37;;;;;;;0.88;0.30;;;;;;;17.03;45.11;95980.97;5087227;28;20067;-60
2021/05/12 03:43:03;;;;;;;0.65;0.50;;;;;;;17.02;45.53;95984.75;5088307;28;20056;-61
2021/05/12 03:45:28;;;;;;;0.50;0.30;;;;;;;17.02;45.46;95972.06;5070060;28;20674;-61
2021/05/12 03:47:54;;;;;;;0.60;0.45;;;;;;;17.02;45.32;95980.16;5069191;28;20048;-61
2021/05/12 03:50:20;;;;;;;0.57;0.50;;;;;;;17.01;45.04;95970.41;5068744;28;20078;-61
2021/05/12 03:52:46;;;;;;;1.23;0.47;;;;;;;17.01;45.02;95969.63;5069664;28;20522;-61
2021/05/12 03:55:12;;;;;;;0.50;0.50;;;;;;;17.01;45.10;95969.63;5088675;28;20123;-61
2021/05/12 03:57:37;;;;;;;0.85;0.60;;;;;;;17.00;45.53;95966.09;5070281;28;20043;-59
2021/05/12 04:00:07;;;;;;;0.43;0.43;;;;;;;16.99;45.32;95969.88;5088513;28;20055;-62
2021/05/12 04:02:32;;;;;;;0.95;0.40;;;;;;;16.99;45.28;95960.94;5069513;28;20541;-61
2021/05/12 04:04:58;;;;;;;0.50;0.50;;;;;;;16.98;44.63;95957.44;5086609;28;20052;-62
2021/05/12 04:07:23;;;;;;;0.68;0.63;;;;;;;16.97;45.29;95958.50;5086887;28;20052;-61
2021/05/12 04:09:49;;;;;;;0.75;0.40;;;;;;;16.97;45.24;95953.09;5084775;28;20045;-61
2021/05/12 04:12:14;;;;;;;0.77;0.50;;;;;;;16.96;45.29;95965.03;5088484;28;20048;-62
2021/05/12 04:14:40;;;;;;;0.40;0.40;;;;;;;16.95;45.48;95963.38;5087882;28;20056;-60
2021/05/12 04:17:05;;;;;;;0.82;0.40;;;;;;;16.94;45.40;95961.78;5070315;28;20089;-61
2021/05/12 04:19:30;;;;;;;0.40;0.40;;;;;;;16.94;45.19;95956.34;5087969;28;20407;-61
2021/05/12 04:21:56;;;;;;;1.23;0.50;;;;;;;16.93;45.41;95960.13;5070509;28;20044;-61
2021/05/12 04:24:21;;;;;;;0.57;0.35;;;;;;;16.92;45.11;95947.69;5086788;28;20073;-61
2021/05/12 04:26:47;;;;;;;1.30;0.57;;;;;;;16.92;45.35;95953.13;5088457;28;20099;-61
2021/05/12 04:29:12;;;;;;;0.60;0.60;;;;;;;16.91;45.02;95954.19;5086177;28;20123;-61
2021/05/12 04:31:38;;;;;;;0.45;0.40;;;;;;;16.91;45.44;95947.97;5085100;28;20141;-61
2021/05/12 04:34:04;;;;;;;0.50;0.47;;;;;;;16.90;45.20;95949.88;5067623;28;20055;-61
2021/05/12 04:36:29;;;;;;;0.43;0.43;;;;;;;16.90;45.47;95949.88;5066295;28;20035;-60
2021/05/12 04:38:55;;;;;;;0.82;0.82;;;;;;;16.89;45.13;95945.53;5087525;28;20600;-61
2021/05/12 04:41:20;;;;;;;0.50;0.50;;;;;;;16.89;45.31;95948.22;5086971;28;20453;-61
2021/05/12 04:43:46;;;;;;;0.43;0.43;;;;;;;16.89;45.08;95942.00;5086342;28;20167;-61
2021/05/12 04:46:11;;;;;;;0.65;0.55;;;;;;;16.88;45.33;95943.91;5069789;28;20048;-61
2021/05/12 04:48:37;;;;;;;0.55;0.30;;;;;;;16.87;45.15;95942.28;5084175;28;20459;-61
2021/05/12 04:51:02;;;;;;;0.75;0.60;;;;;;;16.88;45.17;95943.06;5089046;28;20052;-61
2021/05/12 04:53:28;;;;;;;1.17;0.50;;;;;;;16.88;45.13;95943.06;5085136;28;20055;-61
2021/05/12 04:55:53;;;;;;;0.70;0.50;;;;;;;16.86;45.50;95937.13;5084770;28;20040;-61
2021/05/12 04:58:20;;;;;;;0.40;0.40;;;;;;;16.85;45.44;95932.81;5082542;28;20533;-61
2021/05/12 05:00:45;;;;;;;0.45;0.45;;;;;;;16.84;45.07;95923.91;5088973;28;20044;-61
2021/05/12 05:03:11;;;;;;;1.02;0.43;;;;;;;16.85;45.32;95930.09;5068945;28;20077;-61
2021/05/12 05:05:36;;;;;;;0.68;0.68;;;;;;;16.84;45.36;95934.72;5077319;28;20059;-61
2021/05/12 05:08:01;;;;;;;0.50;0.50;;;;;;;16.83;45.01;95929.56;5081626;28;20594;-61
2021/05/12 05:10:27;;;;;;;0.85;0.60;;;;;;;16.84;45.20;95932.00;5088952;28;20485;-62
2021/05/12 05:12:52;;;;;;;0.65;0.65;;;;;;;16.84;45.38;95931.19;5081460;28;20117;-61
2021/05/12 05:15:18;;;;;;;0.77;0.77;;;;;;;16.83;45.23;95924.97;5084138;28;20067;-61
2021/05/12 05:17:43;;;;;;;1.42;0.70;;;;;;;16.83;45.33;95921.44;5083492;28;20043;-61
2021/05/12 05:20:11;;;;;;;0.40;0.40;;;;;;;16.81;44.85;95919.81;5053700;28;20040;-61
2021/05/12 05:22:36;;;;;;;0.60;0.60;;;;;;;16.81;45.13;95927.94;5061609;28;20079;-60
2021/05/12 05:25:02;;;;;;;0.60;0.60;;;;;;;16.80;45.32;95923.63;5045979;28;20468;-62
2021/05/12 05:27:27;;;;;;;1.17;0.70;;;;;;;16.82;45.48;95915.25;5085317;28;20052;-62
2021/05/12 05:29:53;;;;;;;0.60;0.60;;;;;;;16.83;45.19;95922.25;5070883;28;20920;-62
2021/05/12 05:32:18;;;;;;;1.17;0.52;;;;;;;16.83;45.48;95924.97;5084459;28;20040;-60
2021/05/12 05:34:44;;;;;;;0.40;0.40;;;;;;;16.82;45.40;95915.25;5082476;28;20048;-59
2021/05/12 05:37:10;;;;;;;0.50;0.50;;;;;;;16.81;45.56;95914.41;5085655;28;20051;-61
2021/05/12 05:39:36;;;;;;;0.70;0.60;;;;;;;16.81;45.79;95917.09;5082464;28;20047;-60
2021/05/12 05:42:05;;;;;;;0.77;0.50;;;;;;;16.82;45.39;95931.47;5086347;28;20271;-61
2021/05/12 05:44:30;;;;;;;0.73;0.52;;;;;;;16.81;45.63;95924.41;5066938;28;20240;-62
2021/05/12 05:46:56;;;;;;;0.60;0.60;;;;;;;16.82;45.79;95926.06;5067542;28;20063;-62
2021/05/12 05:49:22;;;;;;;0.50;0.45;;;;;;;16.82;45.52;95920.66;5083847;28;20040;-61
2021/05/12 05:51:47;;;;;;;0.50;0.50;;;;;;;16.83;45.52;95927.66;5088601;28;20043;-61
2021/05/12 05:54:13;;;;;;;2.53;0.80;;;;;;;16.83;45.58;95916.84;5083331;28;20048;-60
2021/05/12 05:56:38;;;;;;;3.38;1.42;;;;;;;16.84;46.10;95915.78;5084299;28;20079;-60
2021/05/12 05:59:04;;;;;;;4.72;1.77;;;;;;;16.84;46.31;95913.06;5059621;28;20048;-59
2021/05/12 06:01:29;;;;;;;4.47;1.38;;;;;;;16.87;46.64;95912.53;5078384;28;20051;-60
2021/05/12 06:03:55;;;;;;;2.45;1.50;;;;;;;16.89;46.87;95915.78;5083559;28;20045;-61
2021/05/12 06:06:20;;;;;;;1.58;1.48;;;;;;;16.90;46.93;95917.41;5085518;28;20055;-61
2021/05/12 06:08:45;;;;;;;2.17;1.70;;;;;;;16.92;47.17;95915.25;5086548;28;20063;-60
2021/05/12 06:11:11;;;;;;;1.40;0.98;;;;;;;16.93;46.70;95911.44;5088271;28;20055;-61
2021/05/12 06:13:36;;;;;;;1.40;1.30;;;;;;;16.95;46.79;95909.28;5084085;28;20055;-61
2021/05/12 06:16:03;;;;;;;1.65;1.05;;;;;;;16.95;47.13;95911.19;5081332;28;20048;-60
2021/05/12 06:18:29;;;;;;;1.85;1.23;;;;;;;16.95;47.18;95898.44;5062405;28;20121;-60
2021/05/12 06:20:54;;;;;;;2.35;1.10;;;;;;;16.96;46.83;95896.56;5065410;28;20052;-61
2021/05/12 06:23:20;;;;;;;1.92;0.70;;;;;;;16.97;46.70;95898.19;5063509;28;20128;-59
2021/05/12 06:25:46;;;;;;;1.08;1.02;;;;;;;16.97;46.66;95890.88;5084140;28;20067;-61
2021/05/12 06:28:11;;;;;;;1.13;0.93;;;;;;;16.98;46.54;95892.50;5087702;28;20055;-60
2021/05/12 06:30:37;;;;;;;2.05;1.10;;;;;;;16.99;46.64;95890.63;5063467;28;20096;-59
2021/05/12 06:33:02;;;;;;;1.30;0.90;;;;;;;16.99;46.71;95885.19;5084961;28;20040;-61
2021/05/12 06:35:28;;;;;;;1.42;1.27;;;;;;;16.99;47.00;95887.91;5084933;28;20098;-61
2021/05/12 06:37:53;;;;;;;2.90;1.42;;;;;;;17.00;47.22;95887.66;5085272;28;20416;-60
2021/05/12 06:40:18;;;;;;;1.75;1.27;;;;;;;17.01;47.29;95885.75;5067516;28;20040;-60
2021/05/12 06:42:44;;;;;;;1.50;1.40;;;;;;;17.02;47.62;95885.47;5087362;28;20506;-60
2021/05/12 06:45:12;;;;;;;1.95;1.50;;;;;;;17.04;48.01;95881.66;5083048;28;20036;-61
2021/05/12 06:47:39;;;;;;;3.28;1.38;;;;;;;17.06;47.65;95876.81;5082683;28;20470;-61
2021/05/12 06:50:05;;;;;;;2.30;1.10;;;;;;;17.06;48.00;95866.78;5085634;28;20055;-60
2021/05/12 06:52:30;;;;;;;2.95;1.00;;;;;;;17.07;47.67;95868.41;5065118;28;20228;-60
2021/05/12 06:54:56;;;;;;;1.85;1.00;;;;;;;17.07;48.07;95865.72;5085463;28;20573;-60
2021/05/12 06:57:21;;;;;;;1.77;1.10;;;;;;;17.09;47.81;95863.53;5086066;28;20044;-60
2021/05/12 06:59:47;;;;;;;1.10;1.00;;;;;;;17.08;47.36;95861.91;5074768;28;20047;-61
2021/05/12 07:02:12;;;;;;;5.00;1.08;;;;;;;17.10;47.65;95869.75;5087425;28;20522;-60
2021/05/12 07:04:38;;;;;;;1.30;1.00;;;;;;;17.10;47.30;95858.94;5081942;28;20048;-60
2021/05/12 07:07:03;;;;;;;2.67;0.80;;;;;;;17.10;47.68;95864.34;5067240;28;20101;-61
2021/05/12 07:09:28;;;;;;;1.73;0.88;;;;;;;17.11;47.58;95866.78;5086304;28;20053;-61
2021/05/12 07:11:54;;;;;;;0.75;0.70;;;;;;;17.13;47.50;95867.31;5083932;28;20048;-61
2021/05/12 07:14:19;;;;;;;1.67;0.85;;;;;;;17.12;47.47;95862.19;5070241;28;20126;-57
2021/05/12 07:16:45;;;;;;;0.73;0.73;;;;;;;17.13;47.14;95866.50;5090067;28;20039;-57
2021/05/12 07:19:10;;;;;;;1.15;0.93;;;;;;;17.14;47.35;95862.72;5069229;28;20052;-58
2021/05/12 07:21:35;;;;;;;3.20;1.30;;;;;;;17.15;46.98;95858.91;5069122;28;20453;-59
2021/05/12 07:24:01;;;;;;;3.65;1.23;;;;;;;17.15;47.22;95869.72;5086928;28;20491;-58
2021/05/12 07:26:27;;;;;;;1.98;0.90;;;;;;;17.18;47.30;95863.78;5052290;28;20508;-59
2021/05/12 07:28:52;;;;;;;1.42;1.10;;;;;;;17.17;47.31;95857.56;5071445;28;20430;-59
2021/05/12 07:31:20;;;;;;;1.27;0.70;;;;;;;17.19;46.86;95851.88;5083137;28;20032;-59
2021/05/12 07:33:45;;;;;;;4.55;1.40;;;;;;;17.19;47.03;95849.16;5071590;28;20055;-59
2021/05/12 07:36:11;;;;;;;0.68;0.68;;;;;;;17.21;46.82;95850.53;5070089;28;20048;-58
2021/05/12 07:38:36;;;;;;;1.48;0.82;;;;;;;17.24;46.86;95854.56;5088150;28;20052;-59
2021/05/12 07:41:03;;;;;;;2.67;0.90;;;;;;;17.25;47.22;95848.06;5053487;28;20570;-56
2021/05/12 07:43:29;;;;;;;1.85;0.75;;;;;;;17.25;46.92;95837.25;5069506;28;20134;-58
2021/05/12 07:45:56;;;;;;;4.50;0.88;;;;;;;17.26;46.73;95836.16;5088498;28;20048;-57
2021/05/12 07:48:22;;;;;;;1.35;0.80;;;;;;;17.27;46.86;95840.47;5083247;28;20052;-58
2021/05/12 07:50:47;;;;;;;2.75;1.20;;;;;;;17.28;46.69;95827.78;5068934;28;20043;-60
2021/05/12 07:53:13;;;;;;;3.05;1.10;;;;;;;17.26;46.69;95832.66;5085176;28;20089;-60
2021/05/12 07:55:38;;;;;;;5.40;1.08;;;;;;;17.27;47.02;95828.84;5065900;28;20047;-61
2021/05/12 07:58:04;;;;;;;5.75;1.17;;;;;;;17.27;46.84;95826.16;5088067;28;20043;-60
2021/05/12 08:00:32;;;;;;;1.98;1.08;;;;;;;17.28;47.15;95823.16;5071853;28;20477;-60
2021/05/12 08:02:57;;;;;;;2.28;1.00;;;;;;;17.29;46.52;95819.38;5069106;28;20058;-59
2021/05/12 08:05:23;;;;;;;1.25;0.82;;;;;;;17.28;46.38;95814.25;5068757;28;20048;-60
2021/05/12 08:07:48;;;;;;;3.63;1.00;;;;;;;17.28;46.67;95820.47;5072075;28;20142;-59
2021/05/12 08:10:14;;;;;;;2.05;0.88;;;;;;;17.29;46.61;95815.84;5086175;28;20521;-60
2021/05/12 08:12:39;;;;;;;4.25;1.20;;;;;;;17.29;46.97;95815.84;5090245;28;20788;-61
2021/05/12 08:15:05;;;;;;;3.72;1.00;;;;;;;17.29;47.26;95813.94;5089231;28;20052;-61
2021/05/12 08:17:31;;;;;;;4.50;1.20;;;;;;;17.31;46.94;95814.47;5089439;28;20137;-58
2021/05/12 08:19:59;;;;;;;3.35;0.70;;;;;;;17.31;47.06;95808.28;5086897;28;20079;-60
2021/05/12 08:22:24;;;;;;;3.15;2.80;;;;;;;17.33;46.92;95808.81;5081791;28;20059;-60
2021/05/12 08:24:50;;;;;;;2.42;2.05;;;;;;;17.33;47.00;95806.09;5051052;28;20129;-59
2021/05/12 08:27:15;;;;;;;2.33;2.10;;;;;;;17.34;46.71;95808.53;5083879;28;20052;-61
2021/05/12 08:29:49;;;;;;;10.93;6.17;;;;;;;17.36;47.37;95808.22;4498732;28;10001402;-63
2021/05/12 08:32:16;;;;;;;4.95;3.47;;;;;;;17.38;47.47;95809.59;5042483;28;20531;-62
2021/05/12 08:34:42;;;;;;;8.02;4.57;;;;;;;17.40;47.52;95804.72;5060134;28;20065;-61
2021/05/12 08:37:07;;;;;;;8.82;3.65;;;;;;;17.41;47.12;95805.53;5028269;28;20056;-62
2021/05/12 08:39:33;;;;;;;6.25;2.67;;;;;;;17.43;47.08;95806.06;5046876;28;20784;-62
2021/05/12 08:41:59;;;;;;;6.75;2.75;;;;;;;17.43;47.37;95797.94;5039147;28;20049;-63
2021/05/12 08:44:24;;;;;;;2.80;2.25;;;;;;;17.45;47.13;95793.06;5035726;28;20056;-62
2021/05/12 08:46:50;;;;;;;3.38;2.38;;;;;;;17.46;47.26;95785.72;5045830;28;20045;-64
2021/05/12 08:49:16;;;;;;;7.15;2.97;;;;;;;17.48;46.88;95788.97;5041086;28;20060;-64
2021/05/12 08:51:41;;;;;;;5.40;2.60;;;;;;;17.48;46.81;95789.78;5023302;28;20056;-62
2021/05/12 08:54:07;;;;;;;5.57;3.00;;;;;;;17.48;47.16;95778.94;5026549;28;20048;-62
2021/05/12 08:56:32;;;;;;;3.90;2.20;;;;;;;17.49;46.82;95783.28;5022040;28;20073;-66
2021/05/12 08:58:59;;;;;;;4.35;2.20;;;;;;;17.50;46.71;95789.50;5042607;28;20060;-65
2021/05/12 09:01:25;;;;;;;3.65;1.95;;;;;;;17.49;47.14;95786.00;5038877;28;20061;-63
2021/05/12 09:03:50;;;;;;;3.45;1.90;;;;;;;17.50;47.01;95784.09;5038168;28;20520;-63
2021/05/12 09:06:16;;;;;;;10.48;4.35;;;;;;;17.51;47.17;95777.59;5009868;28;20053;-63
2021/05/12 09:08:43;;;;;;;17.25;10.65;;;;;;;17.54;47.22;95768.91;5045482;28;20068;-60
2021/05/12 09:11:09;;;;;;;40.17;26.90;;;;;;;17.58;47.14;95765.34;5027338;28;20478;-60
2021/05/12 09:13:38;;;;;;;38.83;21.52;;;;;;;17.64;47.32;95758.03;5022987;28;20056;-68
2021/05/12 09:16:19;;;;;;;52.65;35.53;;;;;;;17.69;47.11;95755.28;5027276;28;20171;-62
2021/05/12 09:18:45;;;;;;;75.03;53.67;;;;;;;17.75;46.83;95756.88;5042890;28;20068;-60
2021/05/12 09:21:11;;;;;;;97.40;73.07;;;;;;;17.81;46.92;95754.94;5045543;28;20076;-59
2021/05/12 09:23:38;;;;;;;109.47;81.20;;;;;;;17.88;46.93;95755.44;5040428;28;20064;-59
2021/05/12 09:26:04;;;;;;;117.03;88.60;;;;;;;17.94;46.90;95756.22;5037918;28;20061;-59
2021/05/12 09:28:30;;;;;;;125.90;98.00;;;;;;;18.01;46.84;95754.84;5015427;28;20064;-59
2021/05/12 09:31:12;;;;;;;138.27;108.47;;;;;;;18.06;47.01;95748.56;5037964;28;20056;-59
2021/05/12 09:33:42;;;;;;;149.15;117.40;;;;;;;18.15;46.92;95746.06;5041053;28;20055;-59
2021/05/12 09:36:08;;;;;;;156.60;126.10;;;;;;;18.21;46.92;95745.72;5032904;28;20129;-59
2021/05/12 09:38:34;;;;;;;170.05;136.73;;;;;;;18.27;46.89;95748.41;5017881;28;20153;-59
2021/05/12 09:41:08;;;;;;;166.68;135.88;;;;;;;18.33;46.66;95747.28;5036447;28;20052;-59
2021/05/12 09:43:34;;;;;;;170.30;138.77;;;;;;;18.40;46.65;95742.31;5039084;28;20079;-59
2021/05/12 09:46:15;;;;;;;182.20;148.00;;;;;;;18.46;46.73;95743.88;5043673;28;20044;-59
2021/05/12 09:48:59;;;;;;;195.57;157.38;;;;;;;18.55;46.30;95738.66;5039643;28;20056;-59
2021/05/12 09:51:25;;;;;;;183.63;151.68;;;;;;;18.62;46.32;95736.41;5034941;28;20049;-59
2021/05/12 09:54:12;;;;;;;181.70;149.63;;;;;;;18.68;45.92;95737.16;5017246;28;20458;-59
2021/05/12 09:56:52;;;;;;;166.95;140.80;;;;;;;18.75;45.90;95745.78;5022662;28;20075;-59
2021/05/12 09:59:25;;;;;;;160.52;131.55;;;;;;;18.81;45.91;95737.31;5040761;28;20060;-59
2021/05/12 10:01:57;;;;;;;157.10;128.65;;;;;;;18.86;45.77;95733.75;5021262;28;20197;-60
2021/05/12 10:04:28;;;;;;;150.00;122.85;;;;;;;18.92;45.93;95727.16;5041896;28;20071;-59
2021/05/12 10:06:58;;;;;;;139.23;118.38;;;;;;;19.00;45.84;95728.44;5039218;28;20053;-59
2021/05/12 10:09:25;;;;;;;132.77;109.53;;;;;;;19.07;45.33;95722.66;5014930;28;20589;-59
2021/05/12 10:12:09;;;;;;;122.72;104.47;;;;;;;19.13;45.32;95713.34;5035912;28;20097;-61
2021/05/12 10:14:36;;;;;;;119.38;98.07;;;;;;;19.18;44.95;95705.97;5035635;28;20135;-61
2021/05/12 10:17:03;;;;;;;111.72;94.30;;;;;;;19.23;45.16;95705.09;5017768;28;20553;-62
2021/05/12 10:19:28;;;;;;;111.03;92.22;;;;;;;19.28;44.85;95707.72;5018071;28;20413;-58
2021/05/12 10:21:54;;;;;;;110.97;93.43;;;;;;;19.32;44.92;95711.47;5034754;28;20049;-61
2021/05/12 10:24:20;;;;;;;107.85;90.15;;;;;;;19.38;44.57;95704.06;5032762;28;20053;-62
2021/05/12 10:26:45;;;;;;;107.55;88.43;;;;;;;19.45;44.63;95704.50;5032519;28;20042;-63
2021/05/12 10:29:13;;;;;;;104.07;86.90;;;;;;;19.49;44.67;95700.09;5040436;28;20050;-64
2021/05/12 10:31:38;;;;;;;104.32;87.00;;;;;;;19.55;44.49;95706.28;5023776;28;20517;-62
2021/05/12 10:34:03;;;;;;;99.78;83.82;;;;;;;19.59;44.55;95699.16;5032126;28;20060;-62
2021/05/12 10:36:29;;;;;;;99.70;81.25;;;;;;;19.64;44.31;95696.38;5012342;28;20487;-63
2021/05/12 10:38:56;;;;;;;97.95;82.63;;;;;;;19.68;44.33;95683.84;5017024;28;20969;-63
2021/05/12 10:41:37;;;;;;;89.95;76.07;;;;;;;19.71;44.28;95685.19;5003875;28;20057;-62
2021/05/12 10:44:10;;;;;;;83.28;68.25;;;;;;;19.76;43.95;95688.59;5042030;28;21077;-63
2021/05/12 10:47:02;;;;;;;75.57;61.33;;;;;;;19.78;43.75;95675.53;5013800;28;20041;-61
2021/05/12 10:49:27;;;;;;;66.70;53.78;;;;;;;19.81;43.35;95674.16;5040830;28;20045;-61
2021/05/12 10:51:53;;;;;;;58.53;48.08;;;;;;;19.84;43.26;95671.63;5015956;28;20049;-61
2021/05/12 10:54:41;;;;;;;53.50;44.15;;;;;;;19.88;42.96;95677.28;5020241;28;20806;-61
2021/05/12 10:57:07;;;;;;;45.60;38.72;;;;;;;19.91;42.97;95667.72;5044391;28;20045;-60
2021/05/12 10:59:33;;;;;;;41.72;33.70;;;;;;;19.93;42.79;95662.81;5036555;28;20052;-61
2021/05/12 11:01:58;;;;;;;36.05;30.77;;;;;;;19.93;42.45;95660.91;5042470;28;20059;-61
2021/05/12 11:04:25;;;;;;;33.20;27.20;;;;;;;19.96;42.11;95659.50;5047131;28;20045;-61
2021/05/12 11:06:50;;;;;;;28.63;23.33;;;;;;;19.98;41.77;95657.31;5042225;28;20060;-60
2021/05/12 11:09:20;;;;;;;22.88;19.80;;;;;;;19.99;41.37;95656.19;5023729;28;20049;-60
2021/05/12 11:11:45;;;;;;;20.08;15.93;;;;;;;20.01;41.21;95653.97;5043038;28;20087;-61
2021/05/12 11:14:25;;;;;;;17.20;13.90;;;;;;;20.02;41.31;95656.41;5025363;28;20503;-60
2021/05/12 11:17:06;;;;;;;14.80;11.93;;;;;;;20.05;41.18;95655.00;5048098;28;20139;-63
2021/05/12 11:19:59;;;;;;;15.88;11.48;;;;;;;20.10;41.09;95654.09;5038514;28;20691;-61
2021/05/12 11:24:58;;;;;;;13.35;10.18;;;;;;;20.15;40.93;95648.59;5044141;28;20045;-61
2021/05/12 11:27:46;;;;;;;12.63;9.48;;;;;;;20.16;40.69;95640.13;5025771;28;20128;-61
2021/05/12 11:32:59;;;;;;;10.20;7.30;;;;;;;20.20;40.34;95637.59;5029727;28;20048;-59